Time;durP1;ratioP1;P1;durP2;ratioP2;P2;SDS_P1;SDS_P2;PMS_P1;PMS_P2;Temp;Humidity;BMP_temperature;BMP_pressure;BME280_temperature;BME280_humidity;BME280_pressure;Samples;Min_cycle;Max_cycle;Signal;HPM_P1;HPM_P2
2022/05/02 00:01:03;;;;;;;4.03;1.75;;;12.00;98.40;;;;;;10429850;28;20057;-59
2022/05/02 00:06:07;;;;;;;8.23;2.38;;;11.90;99.30;;;;;;10409995;28;20488;-58
2022/05/02 00:11:09;;;;;;;7.07;1.83;;;11.80;99.90;;;;;;10408522;28;20057;-59
2022/05/02 00:16:10;;;;;;;4.95;2.40;;;11.70;99.90;;;;;;10429813;28;20060;-60
2022/05/02 00:21:12;;;;;;;8.20;2.10;;;11.60;99.90;;;;;;10427542;28;20113;-58
2022/05/02 00:26:14;;;;;;;3.60;1.77;;;11.50;99.90;;;;;;10429379;28;20430;-58
2022/05/02 00:31:16;;;;;;;7.40;2.58;;;11.40;99.90;;;;;;10410092;28;20084;-58
2022/05/02 00:36:18;;;;;;;4.50;2.47;;;11.30;99.90;;;;;;10423240;28;20048;-58
2022/05/02 00:41:22;;;;;;;4.25;2.17;;;11.20;99.90;;;;;;10428272;28;20060;-58
2022/05/02 00:46:26;;;;;;;3.38;2.25;;;11.10;99.90;;;;;;10427848;28;20461;-58
2022/05/02 00:51:27;;;;;;;12.52;2.63;;;11.00;99.90;;;;;;10408070;28;20044;-59
2022/05/02 00:56:30;;;;;;;5.55;3.53;;;10.90;99.90;;;;;;10427457;28;20053;-57
2022/05/02 01:01:32;;;;;;;6.80;3.55;;;10.90;99.90;;;;;;10399590;28;20092;-58
2022/05/02 01:11:55;;;;;;;6.93;2.08;;;10.70;99.90;;;;;;10427511;28;20393;-58
2022/05/02 01:16:56;;;;;;;7.55;2.33;;;10.60;99.90;;;;;;10405684;28;20056;-59
2022/05/02 01:21:58;;;;;;;6.43;2.30;;;10.60;99.90;;;;;;10426738;28;20154;-60
2022/05/02 01:27:01;;;;;;;7.18;2.58;;;10.50;99.90;;;;;;10428037;28;20053;-58
2022/05/02 01:32:09;;;;;;;7.15;2.60;;;10.40;99.90;;;;;;10434118;28;20144;-58
2022/05/02 01:37:12;;;;;;;6.85;2.72;;;10.30;99.90;;;;;;10417047;28;20068;-57
2022/05/02 01:42:14;;;;;;;7.95;2.70;;;10.20;99.90;;;;;;10414455;28;20068;-58
2022/05/02 01:47:16;;;;;;;8.93;2.72;;;10.10;99.90;;;;;;10419014;28;20061;-58
2022/05/02 01:52:18;;;;;;;5.57;2.25;;;10.00;99.90;;;;;;10418662;28;20057;-59
2022/05/02 01:57:19;;;;;;;7.97;2.83;;;10.00;99.90;;;;;;10434937;28;20052;-59
2022/05/02 02:02:22;;;;;;;6.68;2.63;;;10.00;99.90;;;;;;10410808;28;20055;-58
2022/05/02 02:07:27;;;;;;;5.13;2.63;;;10.00;99.90;;;;;;10434887;28;20056;-58
2022/05/02 02:12:29;;;;;;;4.63;2.67;;;9.90;99.90;;;;;;10431378;28;20084;-58
2022/05/02 02:17:30;;;;;;;5.85;2.78;;;9.80;99.90;;;;;;10434237;28;20072;-59
2022/05/02 02:22:32;;;;;;;6.78;2.53;;;9.70;99.90;;;;;;10433931;28;20057;-58
2022/05/02 02:27:34;;;;;;;4.85;2.63;;;9.50;99.90;;;;;;10410234;28;20060;-58
2022/05/02 02:32:36;;;;;;;4.72;3.05;;;9.50;99.90;;;;;;10432698;28;20442;-58
2022/05/02 02:37:39;;;;;;;6.40;2.80;;;9.40;99.90;;;;;;10431706;28;20049;-58
2022/05/02 02:42:41;;;;;;;5.97;2.85;;;9.30;99.90;;;;;;10432778;28;20462;-57
2022/05/02 02:47:44;;;;;;;7.22;2.80;;;9.30;99.90;;;;;;10433919;28;20071;-58
2022/05/02 02:52:46;;;;;;;6.43;2.47;;;9.30;99.90;;;;;;10411292;28;20049;-58
2022/05/02 02:57:48;;;;;;;5.15;2.92;;;9.10;99.90;;;;;;10434154;28;20098;-58
2022/05/02 03:02:50;;;;;;;4.72;2.38;;;9.10;99.90;;;;;;10412588;28;20052;-59
2022/05/02 03:07:52;;;;;;;4.65;2.38;;;9.10;99.90;;;;;;10431982;28;20427;-59
2022/05/02 03:12:54;;;;;;;7.60;4.00;;;9.00;99.90;;;;;;10433508;28;20045;-59
2022/05/02 03:17:56;;;;;;;9.15;3.65;;;8.80;99.90;;;;;;10433365;28;20056;-57
2022/05/02 03:22:58;;;;;;;6.22;2.92;;;8.70;99.90;;;;;;10432220;28;20057;-58
2022/05/02 03:27:59;;;;;;;7.88;4.10;;;8.70;99.90;;;;;;10432191;28;20126;-58
2022/05/02 03:33:02;;;;;;;9.32;3.47;;;8.70;99.90;;;;;;10432795;28;20061;-57
2022/05/02 03:38:03;;;;;;;6.30;2.72;;;8.80;99.90;;;;;;10432078;28;20052;-57
2022/05/02 03:43:05;;;;;;;4.82;2.97;;;8.70;99.90;;;;;;10425493;28;20061;-58
2022/05/02 03:48:07;;;;;;;7.38;3.22;;;8.70;99.90;;;;;;10428511;28;20057;-59
2022/05/02 03:53:09;;;;;;;5.00;2.95;;;8.50;99.90;;;;;;10427441;28;20069;-60
2022/05/02 03:58:12;;;;;;;7.32;3.50;;;8.50;99.90;;;;;;10431069;28;20052;-58
2022/05/02 04:03:14;;;;;;;7.10;2.88;;;8.50;99.90;;;;;;10404932;28;20399;-60
2022/05/02 04:08:16;;;;;;;6.15;2.83;;;8.50;99.90;;;;;;10424902;28;20049;-60
2022/05/02 04:13:17;;;;;;;8.80;3.95;;;8.50;99.90;;;;;;10427939;28;20048;-58
2022/05/02 04:18:19;;;;;;;6.85;3.70;;;8.60;99.90;;;;;;10429101;28;20056;-60
2022/05/02 04:23:21;;;;;;;13.10;3.95;;;8.50;99.90;;;;;;10425202;28;20561;-58
2022/05/02 04:28:22;;;;;;;6.32;3.17;;;8.50;99.90;;;;;;10423102;28;20110;-57
2022/05/02 04:33:24;;;;;;;5.35;3.55;;;8.50;99.90;;;;;;10426971;28;20053;-58
2022/05/02 04:38:28;;;;;;;7.10;2.90;;;8.50;99.90;;;;;;10410536;28;20057;-58
2022/05/02 04:43:30;;;;;;;6.72;3.63;;;8.40;99.90;;;;;;10429888;28;20048;-58
2022/05/02 04:48:32;;;;;;;5.20;3.45;;;8.50;99.90;;;;;;10405564;28;20175;-58
2022/05/02 04:53:34;;;;;;;7.57;2.63;;;8.50;99.90;;;;;;10405827;28;20453;-59
2022/05/02 04:58:36;;;;;;;7.13;3.88;;;8.50;99.90;;;;;;10425241;28;20483;-58
2022/05/02 05:03:38;;;;;;;6.70;3.40;;;8.70;99.90;;;;;;10403761;28;20052;-59
2022/05/02 05:08:40;;;;;;;6.15;3.13;;;8.80;99.90;;;;;;10401706;28;20052;-58
2022/05/02 05:16:20;;;;;;;5.63;3.42;;;8.80;99.90;;;;;;10423134;28;20439;-59
2022/05/02 05:19:31;;;;;;;6.53;3.10;;;8.90;99.90;;;;;;10424536;28;20053;-59
2022/05/02 05:24:49;;;;;;;7.20;3.30;;;9.00;99.90;;;;;;10422936;28;20048;-57
2022/05/02 05:30:08;;;;;;;6.75;2.78;;;9.20;99.90;;;;;;10417044;28;20048;-58
2022/05/02 05:35:11;;;;;;;10.02;3.50;;;9.40;99.90;;;;;;10419222;28;20061;-59
2022/05/02 05:40:23;;;;;;;8.27;4.47;;;9.50;99.90;;;;;;10408211;28;20049;-58
2022/05/02 05:45:35;;;;;;;10.35;3.58;;;9.70;99.90;;;;;;10404464;28;20135;-59
2022/05/02 05:50:42;;;;;;;8.75;3.75;;;9.90;99.90;;;;;;10423888;28;20442;-61
2022/05/02 05:56:15;;;;;;;7.32;3.95;;;10.00;99.90;;;;;;10394091;28;20052;-61
2022/05/02 06:01:48;;;;;;;7.13;2.90;;;10.20;99.90;;;;;;10385102;28;20046;-60
2022/05/02 06:06:51;;;;;;;5.38;3.30;;;10.40;99.90;;;;;;10381925;28;20104;-59
2022/05/02 06:11:55;;;;;;;4.70;2.65;;;10.50;99.90;;;;;;10386387;28;20057;-60
2022/05/02 06:22:21;;;;;;;5.72;2.90;;;10.90;99.90;;;;;;10389568;28;20061;-59
2022/05/02 06:27:23;;;;;;;8.43;3.95;;;11.00;99.90;;;;;;10389332;28;20045;-59
2022/05/02 06:32:26;;;;;;;5.28;3.30;;;11.20;99.90;;;;;;10390836;28;20060;-59
2022/05/02 06:37:46;;;;;;;8.98;3.42;;;11.40;99.90;;;;;;10390954;28;20060;-60
2022/05/02 06:42:56;;;;;;;9.40;3.05;;;11.60;99.90;;;;;;10389360;28;20057;-59
2022/05/02 06:48:13;;;;;;;9.63;3.33;;;11.90;99.90;;;;;;10392086;28;20065;-59
2022/05/02 06:53:18;;;;;;;9.52;3.30;;;12.00;99.90;;;;;;10390128;28;20052;-59
2022/05/02 06:58:57;;;;;;;10.68;2.67;;;12.20;99.90;;;;;;10432394;28;20067;-59
2022/05/02 07:04:31;;;;;;;7.05;3.17;;;12.30;99.90;;;;;;10430192;28;20104;-58
2022/05/02 07:09:41;;;;;;;7.70;3.17;;;12.40;99.90;;;;;;10431197;28;20057;-58
2022/05/02 07:15:01;;;;;;;7.75;3.17;;;12.60;99.90;;;;;;10427793;28;20118;-58
2022/05/02 07:20:05;;;;;;;5.88;2.78;;;12.80;99.90;;;;;;10432702;28;20048;-58
2022/05/02 07:25:12;;;;;;;5.43;2.97;;;12.90;99.90;;;;;;10430785;28;20393;-59
2022/05/02 07:30:15;;;;;;;11.63;3.22;;;13.00;99.30;;;;;;10431639;28;20111;-58
2022/05/02 07:35:18;;;;;;;6.93;3.30;;;13.20;99.40;;;;;;10429448;28;20044;-58
2022/05/02 07:40:22;;;;;;;5.70;2.78;;;13.40;99.70;;;;;;10431307;28;20048;-60
2022/05/02 07:45:27;;;;;;;9.18;2.95;;;13.50;98.50;;;;;;10430254;28;20057;-59
2022/05/02 07:50:31;;;;;;;5.65;3.35;;;13.60;97.80;;;;;;10429547;28;20045;-58
2022/05/02 07:55:33;;;;;;;5.45;3.20;;;13.80;96.30;;;;;;10431286;28;20048;-59
2022/05/02 08:00:36;;;;;;;6.35;2.78;;;13.90;94.60;;;;;;10427173;28;20106;-59
2022/05/02 08:05:44;;;;;;;6.53;2.67;;;14.00;94.40;;;;;;10428609;28;20049;-58
2022/05/02 08:10:56;;;;;;;;;;;14.20;94.50;;;;;;10428089;28;20048;-59
2022/05/02 08:16:10;;;;;;;8.98;3.17;;;14.30;94.40;;;;;;10425513;28;19920;-60
2022/05/02 08:21:20;;;;;;;8.38;3.13;;;14.50;91.90;;;;;;10428571;28;20056;-60
2022/05/02 08:32:10;;;;;;;5.93;3.05;;;14.80;91.00;;;;;;10428209;28;20064;-57
2022/05/02 08:37:47;;;;;;;11.63;3.38;;;15.00;91.30;;;;;;10427831;28;20081;-58
2022/05/02 08:43:43;;;;;;;8.82;3.38;;;15.10;90.10;;;;;;10419895;28;20072;-58
2022/05/02 08:55:06;;;;;;;6.75;3.13;;;15.20;86.30;;;;;;10426982;28;20530;-58
2022/05/02 09:00:27;;;;;;;6.30;3.03;;;15.30;86.40;;;;;;10421609;28;20052;-60
2022/05/02 09:06:35;;;;;;;8.25;3.47;;;15.40;87.90;;;;;;10407105;28;20557;-57
2022/05/02 09:12:14;;;;;;;6.95;2.70;;;15.50;85.40;;;;;;10425405;28;20119;-58
2022/05/02 09:17:24;;;;;;;3.60;2.38;;;15.80;83.90;;;;;;10423600;28;20147;-60
2022/05/02 09:23:03;;;;;;;6.15;2.33;;;16.00;82.90;;;;;;10428182;28;20079;-64
2022/05/02 09:28:20;;;;;;;5.38;2.55;;;16.10;78.00;;;;;;10424476;28;20053;-58
2022/05/02 09:33:34;;;;;;;7.35;2.85;;;16.30;76.80;;;;;;10424964;28;20053;-59
2022/05/02 09:38:51;;;;;;;3.67;2.08;;;16.50;76.80;;;;;;10406679;28;20056;-58
2022/05/02 09:49:37;;;;;;;2.83;1.75;;;17.00;76.40;;;;;;10426747;28;20049;-59
2022/05/02 10:01:07;;;;;;;4.05;1.60;;;17.40;72.00;;;;;;10428389;28;20103;-58
2022/05/02 10:06:25;;;;;;;5.20;2.22;;;17.80;72.00;;;;;;10425129;28;20128;-57
2022/05/02 10:11:47;;;;;;;6.72;1.83;;;18.00;69.10;;;;;;10429951;28;20049;-58
2022/05/02 10:16:57;;;;;;;7.43;2.15;;;18.20;68.80;;;;;;10432247;28;20747;-58
2022/05/02 10:22:13;;;;;;;3.28;1.92;;;18.30;66.90;;;;;;10431878;28;20088;-58
2022/05/02 10:27:43;;;;;;;2.65;1.92;;;18.30;66.00;;;;;;10428053;28;20057;-59
2022/05/02 10:33:02;;;;;;;3.42;1.95;;;18.40;66.90;;;;;;10428315;28;20054;-58
2022/05/02 10:38:05;;;;;;;4.63;1.88;;;18.40;65.50;;;;;;10433788;28;20123;-58
2022/05/02 10:43:08;;;;;;;6.05;2.38;;;18.70;63.10;;;;;;10428003;28;20053;-58
2022/05/02 10:48:19;;;;;;;5.65;2.22;;;19.10;61.30;;;;;;10414990;28;20122;-59
2022/05/02 10:53:59;;;;;;;5.63;2.83;;;19.40;62.40;;;;;;10432732;28;20392;-58
2022/05/02 10:59:05;;;;;;;3.47;2.65;;;19.90;60.10;;;;;;10432304;28;20065;-60
2022/05/02 11:04:30;;;;;;;4.55;2.38;;;20.20;58.70;;;;;;10398857;28;20436;-60
2022/05/02 11:09:58;;;;;;;3.22;1.98;;;20.30;60.30;;;;;;10429126;28;20483;-58
2022/05/02 11:15:09;;;;;;;3.17;2.08;;;20.60;60.90;;;;;;10431926;28;20110;-59
2022/05/02 11:25:49;;;;;;;2.88;2.00;;;20.90;60.00;;;;;;10430394;28;20060;-60
2022/05/02 11:30:58;;;;;;;4.97;2.38;;;21.30;60.80;;;;;;10429463;28;20045;-60
2022/05/02 11:36:03;;;;;;;3.70;2.38;;;21.00;57.10;;;;;;10412672;28;20116;-59
2022/05/02 11:41:18;;;;;;;7.63;2.40;;;21.00;57.50;;;;;;10427109;28;20115;-60
2022/05/02 11:46:23;;;;;;;4.28;2.08;;;21.10;57.20;;;;;;10428951;28;20052;-60
2022/05/02 11:51:47;;;;;;;4.80;2.60;;;21.60;57.60;;;;;;10429001;28;20419;-60
2022/05/02 11:56:58;;;;;;;3.22;2.30;;;21.70;56.30;;;;;;10423543;28;20115;-58
2022/05/02 12:02:04;;;;;;;3.83;2.42;;;22.10;56.10;;;;;;10428478;28;20107;-59
2022/05/02 12:07:13;;;;;;;3.97;2.08;;;22.20;53.80;;;;;;10426904;28;20053;-59
2022/05/02 12:12:16;;;;;;;5.05;2.00;;;22.30;54.90;;;;;;10428369;28;20064;-59
2022/05/02 12:17:18;;;;;;;4.28;2.10;;;22.10;55.50;;;;;;10430185;28;20503;-60
2022/05/02 12:22:25;;;;;;;4.65;2.33;;;22.50;55.20;;;;;;10430446;28;20058;-59
2022/05/02 12:27:29;;;;;;;3.05;2.10;;;22.70;53.90;;;;;;10428485;28;20061;-60
2022/05/02 12:32:37;;;;;;;6.18;2.33;;;22.80;54.40;;;;;;10431421;28;20057;-60
2022/05/02 12:37:39;;;;;;;7.38;1.92;;;22.50;54.60;;;;;;10409689;28;20569;-60
2022/05/02 12:42:44;;;;;;;5.03;2.42;;;22.80;54.10;;;;;;10427237;28;20061;-61
2022/05/02 12:47:51;;;;;;;3.25;2.00;;;23.00;53.20;;;;;;10429505;28;20053;-60
2022/05/02 12:53:00;;;;;;;5.47;2.28;;;23.20;52.90;;;;;;10428174;28;20705;-60
2022/05/02 13:03:30;;;;;;;6.20;1.63;;;23.20;50.40;;;;;;10425239;28;20056;-59
2022/05/02 13:08:43;;;;;;;5.45;1.90;;;23.30;52.70;;;;;;10424845;28;20055;-60
2022/05/02 13:13:53;;;;;;;4.45;2.33;;;23.20;51.20;;;;;;10425757;28;20072;-60
2022/05/02 13:18:58;;;;;;;2.25;1.95;;;23.10;51.10;;;;;;10423356;28;20060;-60
2022/05/02 13:24:07;;;;;;;5.65;1.70;;;23.30;52.40;;;;;;10411300;28;20057;-59
2022/05/02 13:29:36;;;;;;;5.95;1.90;;;23.30;51.80;;;;;;10421377;28;20061;-59
2022/05/02 13:34:48;;;;;;;4.13;1.70;;;23.80;49.50;;;;;;10423855;28;20053;-59
2022/05/02 13:40:01;;;;;;;2.72;1.25;;;23.80;50.20;;;;;;10427878;28;20049;-59
2022/05/02 13:45:05;;;;;;;5.70;2.20;;;23.90;48.50;;;;;;10311790;28;20214;-60
2022/05/02 13:50:12;;;;;;;5.57;1.50;;;23.70;49.00;;;;;;10385615;28;20064;-60
2022/05/02 13:55:43;;;;;;;8.85;2.15;;;24.20;48.30;;;;;;10421528;28;20491;-59
2022/05/02 14:06:07;;;;;;;3.38;1.55;;;23.90;47.70;;;;;;10421738;28;20502;-60
2022/05/02 14:11:13;;;;;;;2.00;1.65;;;23.90;47.90;;;;;;10425040;28;20049;-59
2022/05/02 14:16:16;;;;;;;4.33;1.60;;;23.70;47.30;;;;;;10427613;28;20126;-60
2022/05/02 14:21:19;;;;;;;5.22;1.38;;;23.80;48.30;;;;;;10426825;28;20942;-60
2022/05/02 14:26:26;;;;;;;2.35;1.40;;;23.40;47.80;;;;;;10425353;28;20053;-60
2022/05/02 14:31:39;;;;;;;5.97;1.80;;;23.30;49.00;;;;;;10423994;28;20434;-60
2022/05/02 14:36:41;;;;;;;2.40;1.70;;;23.10;48.70;;;;;;10411344;28;20193;-59
2022/05/02 14:41:43;;;;;;;2.05;1.50;;;22.80;48.60;;;;;;10404979;28;20052;-59
2022/05/02 14:46:45;;;;;;;2.60;1.70;;;22.60;49.70;;;;;;10432965;28;20048;-59
2022/05/02 14:51:51;;;;;;;2.63;1.77;;;22.50;50.20;;;;;;10432189;28;20053;-60
2022/05/02 14:56:56;;;;;;;5.73;1.70;;;22.50;49.30;;;;;;10434927;28;20109;-59
2022/05/02 15:01:59;;;;;;;3.90;1.70;;;22.50;50.40;;;;;;10434032;28;20143;-60
2022/05/02 15:07:04;;;;;;;4.55;1.90;;;22.40;50.40;;;;;;10429411;28;20053;-58
2022/05/02 15:12:12;;;;;;;2.17;1.60;;;22.30;51.00;;;;;;10433076;28;20056;-59
2022/05/02 15:17:27;;;;;;;2.42;1.85;;;22.10;50.40;;;;;;10407233;28;20053;-59
2022/05/02 15:22:48;;;;;;;4.90;1.27;;;22.10;51.50;;;;;;10432241;28;20060;-59
2022/05/02 15:38:57;;;;;;;5.53;1.38;;;22.30;51.20;;;;;;10410804;28;20044;-62
2022/05/02 15:44:30;;;;;;;4.20;1.52;;;22.80;49.60;;;;;;10418308;28;20060;-61
2022/05/02 15:49:38;;;;;;;4.22;1.50;;;22.80;48.40;;;;;;10412071;28;20053;-61
2022/05/02 15:54:44;;;;;;;2.22;1.40;;;22.80;47.20;;;;;;10429484;28;20111;-60
2022/05/02 15:59:49;;;;;;;4.50;1.45;;;23.20;48.60;;;;;;10427195;28;20045;-61
2022/05/02 16:04:52;;;;;;;5.63;1.65;;;23.70;46.90;;;;;;10427251;28;20053;-61
2022/05/02 16:15:26;;;;;;;4.97;1.85;;;24.30;45.30;;;;;;10428569;28;20060;-59
2022/05/02 16:20:33;;;;;;;2.38;1.10;;;24.60;45.00;;;;;;10421038;28;20438;-61
2022/05/02 16:25:37;;;;;;;2.40;1.58;;;24.60;44.00;;;;;;10403095;28;20879;-60
2022/05/02 16:30:39;;;;;;;4.47;1.50;;;24.40;44.60;;;;;;10425200;28;20150;-60
2022/05/02 16:35:42;;;;;;;4.55;1.35;;;24.20;46.20;;;;;;10405073;28;20530;-59
2022/05/02 16:40:46;;;;;;;2.45;1.45;;;24.30;44.50;;;;;;10401088;28;20048;-59
2022/05/02 16:45:51;;;;;;;2.95;1.45;;;24.30;45.10;;;;;;10427468;28;20057;-60
2022/05/02 16:50:53;;;;;;;5.15;1.25;;;24.20;44.60;;;;;;10424576;28;20072;-60
2022/05/02 16:56:00;;;;;;;2.67;1.58;;;23.70;45.00;;;;;;10418758;28;20149;-59
2022/05/02 17:01:12;;;;;;;2.33;1.23;;;23.40;45.50;;;;;;10417612;28;20098;-59
2022/05/02 17:06:15;;;;;;;3.17;1.33;;;23.10;46.10;;;;;;10425113;28;20049;-59
2022/05/02 17:11:18;;;;;;;2.90;1.65;;;23.00;46.60;;;;;;10411872;28;20060;-60
2022/05/02 17:16:23;;;;;;;2.35;1.35;;;22.80;46.90;;;;;;10425545;28;20079;-59
2022/05/02 17:21:28;;;;;;;2.45;1.05;;;22.70;47.40;;;;;;10408360;28;20041;-60
2022/05/02 17:26:41;;;;;;;2.97;1.40;;;22.60;47.80;;;;;;10419475;28;20048;-59
2022/05/02 17:31:54;;;;;;;3.15;1.65;;;22.40;48.70;;;;;;10424978;28;20337;-59
2022/05/02 17:37:00;;;;;;;3.55;1.38;;;22.30;50.00;;;;;;10427118;28;20503;-59
2022/05/02 17:42:07;;;;;;;4.70;1.53;;;22.30;50.20;;;;;;10428138;28;20052;-59
2022/05/02 17:47:11;;;;;;;6.85;1.73;;;22.30;50.10;;;;;;10424675;28;20049;-58
2022/05/02 17:52:13;;;;;;;5.78;1.60;;;22.10;50.50;;;;;;10427541;28;20152;-59
2022/05/02 17:57:19;;;;;;;4.25;1.48;;;21.90;51.20;;;;;;10426159;28;20541;-59
2022/05/02 18:02:22;;;;;;;3.92;2.10;;;21.50;52.60;;;;;;10421865;28;20052;-59
2022/05/02 18:07:24;;;;;;;2.92;1.45;;;21.10;54.30;;;;;;10400150;28;20053;-59
2022/05/02 18:12:25;;;;;;;3.63;1.88;;;20.80;55.20;;;;;;10430076;28;20061;-59
2022/05/02 18:18:00;;;;;;;5.57;1.70;;;20.50;56.80;;;;;;10432657;28;20110;-60
2022/05/02 18:23:07;;;;;;;3.90;1.60;;;20.10;57.30;;;;;;10428150;28;20125;-60
2022/05/02 18:28:19;;;;;;;7.22;1.60;;;19.80;58.00;;;;;;10424335;28;20508;-61
2022/05/02 18:33:32;;;;;;;4.07;1.67;;;19.50;58.40;;;;;;10433098;28;20057;-59
2022/05/02 18:38:54;;;;;;;5.32;1.92;;;19.20;59.20;;;;;;10407543;28;20060;-60
2022/05/02 18:44:09;;;;;;;4.28;1.90;;;18.80;61.10;;;;;;10429515;28;20119;-60
2022/05/02 18:54:39;;;;;;;6.22;2.10;;;18.20;63.20;;;;;;10429418;28;20052;-60
2022/05/02 18:59:42;;;;;;;6.43;1.80;;;17.90;64.90;;;;;;10409873;28;20774;-62
2022/05/02 19:04:46;;;;;;;3.53;1.77;;;17.70;66.00;;;;;;10399352;28;20059;-61
2022/05/02 19:09:50;;;;;;;3.65;1.30;;;17.40;66.50;;;;;;10426795;28;20041;-60
2022/05/02 19:14:56;;;;;;;4.50;1.85;;;17.20;66.40;;;;;;10424406;28;20064;-60
2022/05/02 19:19:58;;;;;;;7.07;1.80;;;17.00;67.10;;;;;;10432881;28;20870;-59
2022/05/02 19:25:10;;;;;;;3.63;1.90;;;16.80;67.40;;;;;;10428233;28;20080;-59
2022/05/02 19:30:16;;;;;;;4.72;2.13;;;16.70;68.00;;;;;;10428210;28;20064;-58
2022/05/02 19:40:46;;;;;;;4.18;1.83;;;16.40;68.70;;;;;;10428629;28;20492;-58
2022/05/02 19:45:49;;;;;;;2.85;1.80;;;16.20;69.50;;;;;;10429045;28;20061;-59
2022/05/02 19:50:52;;;;;;;5.97;2.13;;;16.10;69.90;;;;;;10429056;28;20060;-59
2022/05/02 19:55:56;;;;;;;6.65;2.15;;;15.90;70.80;;;;;;10431366;28;20048;-59
2022/05/02 20:00:58;;;;;;;4.38;1.90;;;15.80;70.80;;;;;;10429884;28;20136;-58
2022/05/02 20:06:01;;;;;;;2.90;1.95;;;15.70;71.40;;;;;;10429105;28;20053;-60
2022/05/02 20:11:04;;;;;;;3.83;2.35;;;15.60;72.60;;;;;;10417207;28;20072;-60
2022/05/02 20:16:06;;;;;;;5.00;2.72;;;15.40;73.40;;;;;;10365907;28;20408;-63
2022/05/02 20:21:08;;;;;;;9.23;2.95;;;15.30;75.70;;;;;;10378238;28;20049;-58
2022/05/02 20:26:10;;;;;;;5.97;3.15;;;15.20;76.90;;;;;;10413275;28;20403;-60
2022/05/02 20:31:13;;;;;;;3.35;2.55;;;15.10;77.30;;;;;;10423529;28;20048;-59
2022/05/02 20:41:45;;;;;;;6.40;2.65;;;14.90;78.50;;;;;;10421753;28;20049;-59
2022/05/02 20:46:56;;;;;;;5.57;2.50;;;14.80;79.70;;;;;;10422291;28;20052;-59
2022/05/02 20:51:58;;;;;;;4.97;2.78;;;14.70;80.70;;;;;;10427191;28;20064;-60
2022/05/02 20:57:04;;;;;;;5.07;3.10;;;14.70;85.00;;;;;;10426505;28;20052;-60
2022/05/02 21:02:08;;;;;;;3.85;2.60;;;14.70;87.00;;;;;;10391121;28;20059;-60
2022/05/02 21:07:10;;;;;;;5.97;2.92;;;14.70;89.80;;;;;;10423494;28;20080;-58
2022/05/02 21:12:23;;;;;;;7.57;2.95;;;14.70;90.60;;;;;;10408709;28;20049;-58
2022/05/02 21:17:42;;;;;;;4.95;2.83;;;14.70;90.20;;;;;;10425733;28;20056;-59
2022/05/02 21:23:03;;;;;;;4.30;2.28;;;14.70;90.30;;;;;;10421209;28;20053;-59
2022/05/02 21:28:32;;;;;;;5.45;2.10;;;14.80;88.40;;;;;;10426077;28;20051;-59
2022/05/02 21:33:44;;;;;;;2.80;2.00;;;14.80;84.60;;;;;;10425586;28;20046;-60
2022/05/02 21:38:49;;;;;;;8.43;2.63;;;14.80;83.50;;;;;;10425665;28;20143;-58
2022/05/02 21:43:51;;;;;;;5.30;2.90;;;14.80;83.20;;;;;;10426846;28;20531;-58
2022/05/02 21:48:53;;;;;;;7.57;2.88;;;14.80;84.20;;;;;;10433169;28;20539;-58
2022/05/02 21:53:55;;;;;;;5.43;2.70;;;14.80;82.80;;;;;;10433455;28;20107;-58
2022/05/02 21:58:56;;;;;;;4.93;2.38;;;14.80;82.90;;;;;;10433895;28;20156;-58
2022/05/02 22:03:59;;;;;;;4.35;2.45;;;14.90;82.70;;;;;;10434064;28;20053;-59
2022/05/02 22:09:00;;;;;;;4.50;2.25;;;14.90;82.60;;;;;;10433930;28;20152;-59
2022/05/02 22:14:02;;;;;;;4.43;2.58;;;14.90;81.70;;;;;;10435088;28;20048;-58
2022/05/02 22:19:05;;;;;;;8.80;2.28;;;15.00;81.30;;;;;;10435740;28;20053;-58
2022/05/02 22:24:07;;;;;;;6.30;2.83;;;15.00;80.10;;;;;;10411848;28;20052;-59
2022/05/02 22:29:08;;;;;;;5.15;2.63;;;15.20;79.00;;;;;;10428051;28;20065;-59
2022/05/02 22:34:10;;;;;;;3.58;2.80;;;15.30;77.90;;;;;;10428344;28;20069;-57
2022/05/02 22:39:12;;;;;;;7.32;2.85;;;15.40;77.20;;;;;;10434701;28;20143;-58
2022/05/02 22:44:15;;;;;;;5.30;2.90;;;15.50;76.40;;;;;;10415122;28;20075;-59
2022/05/02 22:49:17;;;;;;;6.07;2.80;;;15.60;76.30;;;;;;10430845;28;20060;-62
2022/05/02 22:54:18;;;;;;;7.57;2.97;;;15.60;76.40;;;;;;10432048;28;20049;-58
2022/05/02 22:59:29;;;;;;;6.13;2.80;;;15.60;76.20;;;;;;10431884;28;20385;-59
2022/05/02 23:05:22;;;;;;;5.88;3.05;;;15.60;76.70;;;;;;10429255;28;20061;-58
2022/05/02 23:10:28;;;;;;;6.15;2.80;;;15.60;76.70;;;;;;10423873;28;20094;-58
2022/05/02 23:15:30;;;;;;;8.50;2.67;;;15.60;77.20;;;;;;10431126;28;20061;-59
2022/05/02 23:20:32;;;;;;;6.13;3.00;;;15.60;76.70;;;;;;10431149;28;20056;-58
2022/05/02 23:25:36;;;;;;;4.50;3.05;;;15.50;77.00;;;;;;10414164;28;20411;-58
2022/05/02 23:30:54;;;;;;;5.43;2.67;;;15.50;76.90;;;;;;10432900;28;20107;-59
2022/05/02 23:36:05;;;;;;;3.63;3.08;;;15.50;77.00;;;;;;10428466;28;20110;-58
2022/05/02 23:41:10;;;;;;;5.80;2.60;;;15.50;77.50;;;;;;10427539;28;20062;-58
2022/05/02 23:46:34;;;;;;;4.43;2.65;;;15.40;77.40;;;;;;10429605;28;20060;-59
2022/05/02 23:52:03;;;;;;;6.80;2.70;;;15.40;77.70;;;;;;10427822;28;20530;-58
2022/05/02 23:57:34;;;;;;;5.05;2.67;;;15.40;77.70;;;;;;10428881;28;20048;-58
